Arab, MO

2:20 PM CDT on July 24, 2014 (GMT -0500)
RAWS PIEDMONT MO US (MSGRU1) Elev 839 ft | 37.24 °N, 90.27 °W | Change Station

Current weather conditions updated 50 minutes ago

Partly Cloudy
Partly Cloudy
80 °F
Feels Like 79 °F
N
5
Wind Variable Wind from North
Gusts 14.0 mph

Today is forecast to be Much Cooler than yesterday.

Today
High -- | Low -- °F
--% Chance of Precip.
Yesterday
High -- | Low -- °F
Precip. -- in
5:58 AM 8:14 PM
Waning Crescent, 4% visible
Pressure 30.06 in
Visibility 10.0 miles
Clouds Clear
Heat Index 79 °F
Dew Point 48 °F
Humidity 33%
Rainfall 0.00 in
Snow Depth Not available.
UV 11 out of 12
Pollen 6.40 out of 12
Air Quality Not available.
Flu Activity Not available.
METAR KPOF 241853Z AUTO 35007KT 10SM CLR 27/09 A3007 RMK AO2 SLP177 T02720089

More Conditions Fewer Conditions

Pressure 30.06 in
Visibility 10.0 miles
Clouds Clear
Heat Index 79 °F
Dew Point 48 °F
Humidity 33%
Rainfall 0.00 in
Snow Depth Not available.
UV 11 out of 12
Pollen 6.40 out of 12
Air Quality Not available.
Flu Activity Not available.
METAR KPOF 241853Z AUTO 35007KT 10SM CLR 27/09 A3007 RMK AO2 SLP177 T02720089

More Conditions Fewer Conditions

10-Day Weather Forecast

Almanac

Astronomy

Jul. 24, 2014 Rise Set
Actual Time 5:58 AM CDT 8:14 PM CDT
Civil Twilight 5:29 AM CDT 8:43 PM CDT
Nautical Twilight 4:53 AM CDT 9:19 PM CDT
Astronomical Twilight 4:13 AM CDT 9:59 PM CDT
Moon 4:06 AM CDT 6:30 PM CDT
Length of Visible Light 15h 14m
Length of Day
14h 15m
Tomorrow will be 1m 33s shorter.
Waning Crescent, 4% of the Moon is Illuminated
Today
Waning Crescent
Jul 26
New
Aug 3
First Quarter
Aug 10
Full
Aug 17
Last Quarter

Today's Extremes

State Highs State Lows

Community

WunderPhotos

Upload Photos

1,737,094 photos uploaded!

Nearby

Snow Depth

Station Depth Elevation
No new snow has been reported.

Earthquake Activity

City Distance Mag. Time & Date
No recent earthquake activity has been reported nearby.
Minimum magnitude displayed is 2.5.

Coastal Water Temperatures

Place Temperature
No Stations Reporting

Nearby Weather Stations

Station Location Temp. Heat Index Dew Point Humidity Wind Precip. Elev Updated Type
RAWS PIEDMONT MO, Cascade, MO 80 °F 79 °F 48 °F 33% North  at  5 mph 0.00 in / hr 839 ft 1:30 PM CDT MADIS
rural, Whitewater, MO 77.3 °F 79 °F 64 °F 63% NW  at  4.0 mph 0.00 in / hr 410 ft 2:20 PM CDT Rapid Fire
MesoWest PERKNS , Perkins, MO 81 °F 79 °F - - North  at  - 0.00 in / hr 332 ft 12:55 PM CDT MADIS
MesoWest AVERT , Bloomfield, MO 76 °F 74 °F - - North  at  - 0.00 in / hr 309 ft 1:10 PM CDT MADIS
MesoWest DEXTER , Dexter, MO 73 °F 71 °F - - North  at  - 0.00 in / hr 362 ft 12:40 PM CDT MADIS
Dexterweather.com, Dexter, MO 77.4 °F 79 °F 58 °F 51% North  at  6.0 mph 0.00 in / hr 420 ft 2:20 PM CDT Rapid Fire

Show More Stations Show Fewer Stations